Time;durP1;ratioP1;P1;durP2;ratioP2;P2;SDS_P1;SDS_P2;PMS_P1;PMS_P2;Temp;Humidity;BMP_temperature;BMP_pressure;BME280_temperature;BME280_humidity;BME280_pressure;Samples;Min_cycle;Max_cycle;Signal;HPM_P1;HPM_P2
2023/03/07 00:01:31;;;;;;;14.97;9.33;;;0.20;99.90;;;;;;5036653;28;20746;-66
2023/03/07 00:03:59;;;;;;;14.80;9.33;;;0.10;99.90;;;;;;5036287;28;20448;-66
2023/03/07 00:06:26;;;;;;;15.90;10.53;;;0.10;99.90;;;;;;5036356;28;20466;-65
2023/03/07 00:08:57;;;;;;;14.60;10.40;;;0.20;99.90;;;;;;5036613;28;20793;-65
2023/03/07 00:11:24;;;;;;;17.30;9.30;;;0.20;99.90;;;;;;5036667;28;20455;-66
2023/03/07 00:13:52;;;;;;;18.67;10.73;;;0.20;99.90;;;;;;5036509;28;20496;-66
2023/03/07 00:16:20;;;;;;;17.70;10.10;;;0.20;99.90;;;;;;5036144;28;20531;-66
2023/03/07 00:18:48;;;;;;;17.67;10.67;;;0.20;99.90;;;;;;5036138;28;20460;-66
2023/03/07 00:21:16;;;;;;;18.20;12.07;;;0.20;99.90;;;;;;5036054;28;20455;-66
2023/03/07 00:23:45;;;;;;;15.63;10.50;;;0.20;99.90;;;;;;5037072;28;20558;-66
2023/03/07 00:26:15;;;;;;;17.40;11.03;;;0.20;99.90;;;;;;5036212;28;20470;-66
2023/03/07 00:28:42;;;;;;;19.10;11.40;;;0.20;99.90;;;;;;5036040;28;20444;-66
2023/03/07 00:31:10;;;;;;;19.77;11.60;;;0.20;99.90;;;;;;5036005;28;20456;-66
2023/03/07 00:33:38;;;;;;;14.77;11.10;;;0.10;99.90;;;;;;5036207;28;20479;-65
2023/03/07 00:36:08;;;;;;;17.10;10.33;;;0.20;99.90;;;;;;5036123;28;20534;-65
2023/03/07 00:38:35;;;;;;;22.37;12.60;;;0.20;99.90;;;;;;5036682;28;20555;-66
2023/03/07 00:41:04;;;;;;;19.03;11.67;;;0.10;99.90;;;;;;5035878;28;20460;-65
2023/03/07 00:43:33;;;;;;;21.60;12.07;;;0.10;99.90;;;;;;5035477;28;20452;-66
2023/03/07 00:46:00;;;;;;;20.20;12.33;;;0.10;99.90;;;;;;5035821;28;20765;-66
2023/03/07 00:48:28;;;;;;;21.37;12.27;;;0.10;99.90;;;;;;5035634;28;20925;-66
2023/03/07 00:50:55;;;;;;;20.13;12.33;;;0.10;99.90;;;;;;5035659;28;20491;-66
2023/03/07 00:53:23;;;;;;;22.20;12.67;;;0.00;99.90;;;;;;5034557;28;20479;-66
2023/03/07 00:55:55;;;;;;;20.53;11.83;;;0.10;99.90;;;;;;5035589;28;20529;-66
2023/03/07 00:58:22;;;;;;;24.57;12.93;;;0.00;99.90;;;;;;5035482;28;20460;-66
2023/03/07 01:00:50;;;;;;;20.80;13.50;;;0.00;99.90;;;;;;5035321;28;20456;-66
2023/03/07 01:03:18;;;;;;;19.67;12.60;;;0.00;99.90;;;;;;5035681;28;20457;-65
2023/03/07 01:05:45;;;;;;;23.27;14.03;;;0.00;99.90;;;;;;5035691;28;20456;-65
2023/03/07 01:08:12;;;;;;;23.67;14.10;;;0.00;99.90;;;;;;5035273;28;20460;-66
2023/03/07 01:10:39;;;;;;;27.37;14.53;;;0.00;99.90;;;;;;5035474;28;20456;-64
2023/03/07 01:13:06;;;;;;;26.77;15.10;;;0.00;99.90;;;;;;5035068;28;20928;-66
2023/03/07 01:15:33;;;;;;;21.83;13.47;;;0.00;99.90;;;;;;5035252;28;20487;-67
2023/03/07 01:18:01;;;;;;;31.13;15.27;;;0.00;99.90;;;;;;5034986;28;20466;-65
2023/03/07 01:20:32;;;;;;;23.67;13.73;;;-0.10;99.90;;;;;;5035355;28;20460;-65
2023/03/07 01:22:59;;;;;;;24.50;13.43;;;-0.10;99.90;;;;;;5034951;28;20991;-67
2023/03/07 01:25:26;;;;;;;28.33;13.80;;;-0.10;99.90;;;;;;5035251;28;20466;-64
2023/03/07 01:27:55;;;;;;;26.87;14.00;;;-0.20;99.90;;;;;;5035363;28;20841;-65
2023/03/07 01:30:22;;;;;;;23.23;14.23;;;-0.20;99.90;;;;;;5035167;28;20928;-65
2023/03/07 01:32:55;;;;;;;25.37;14.33;;;-0.30;99.90;;;;;;5035195;28;20478;-66
2023/03/07 01:35:23;;;;;;;26.77;14.67;;;-0.20;99.90;;;;;;5035208;28;20769;-66
2023/03/07 01:37:51;;;;;;;33.10;15.17;;;-0.20;99.90;;;;;;5034855;28;20981;-66
2023/03/07 01:40:18;;;;;;;34.30;16.80;;;-0.20;99.90;;;;;;5034802;28;20967;-66
2023/03/07 01:42:46;;;;;;;32.80;17.27;;;-0.30;99.90;;;;;;5035720;28;20462;-66
2023/03/07 01:45:50;;;;;;;32.03;17.40;;;-0.20;99.90;;;;;;5034894;28;20496;-65
2023/03/07 01:48:17;;;;;;;32.87;16.13;;;-0.20;99.90;;;;;;5034604;28;20462;-65
2023/03/07 01:50:45;;;;;;;29.70;16.47;;;-0.20;99.90;;;;;;5035125;28;20459;-65
2023/03/07 01:53:14;;;;;;;35.10;18.23;;;-0.20;99.90;;;;;;5034965;28;20483;-66
2023/03/07 01:55:41;;;;;;;30.23;17.50;;;-0.20;99.90;;;;;;5034785;28;20460;-65
2023/03/07 01:58:12;;;;;;;32.53;17.43;;;-0.10;99.90;;;;;;5035018;28;20456;-65
2023/03/07 02:00:40;;;;;;;30.03;17.00;;;-0.20;99.90;;;;;;5034939;28;20444;-65
2023/03/07 02:03:12;;;;;;;30.07;16.10;;;-0.20;99.90;;;;;;5035315;28;20459;-66
2023/03/07 02:05:43;;;;;;;36.30;17.40;;;-0.20;99.90;;;;;;5039112;28;20455;-65
2023/03/07 02:08:13;;;;;;;34.33;19.13;;;-0.20;99.90;;;;;;5039014;28;20791;-66
2023/03/07 02:10:41;;;;;;;34.97;17.23;;;-0.20;99.90;;;;;;5038290;28;20444;-65
2023/03/07 02:13:08;;;;;;;34.20;17.03;;;-0.20;99.90;;;;;;5038194;28;20456;-65
2023/03/07 02:15:35;;;;;;;32.80;17.17;;;-0.20;99.90;;;;;;5038183;28;20817;-66
2023/03/07 02:18:03;;;;;;;33.87;17.80;;;-0.20;99.90;;;;;;5038207;28;20460;-64
2023/03/07 02:20:40;;;;;;;38.03;19.33;;;-0.20;99.90;;;;;;5038351;28;20464;-65
2023/03/07 02:23:12;;;;;;;35.73;18.50;;;-0.10;99.90;;;;;;5038251;28;20444;-65
2023/03/07 02:25:44;;;;;;;36.30;19.33;;;-0.10;99.90;;;;;;5038133;28;20480;-65
2023/03/07 02:28:16;;;;;;;38.80;19.63;;;-0.10;99.90;;;;;;5038681;28;20444;-65
2023/03/07 02:30:53;;;;;;;49.90;21.67;;;0.00;99.90;;;;;;5038164;28;20527;-66
2023/03/07 02:33:23;;;;;;;38.50;19.87;;;0.00;99.90;;;;;;5037855;28;20454;-66
2023/03/07 02:35:53;;;;;;;47.10;21.67;;;0.00;99.90;;;;;;5038221;28;20463;-66
2023/03/07 02:38:21;;;;;;;46.70;21.00;;;0.10;99.90;;;;;;5038180;28;20460;-65
2023/03/07 02:40:48;;;;;;;45.90;21.83;;;0.10;99.90;;;;;;5038106;28;20786;-66
2023/03/07 02:43:16;;;;;;;51.53;23.30;;;0.20;99.90;;;;;;5037963;28;20472;-65
2023/03/07 02:45:43;;;;;;;51.83;25.73;;;0.20;99.90;;;;;;5037469;28;20982;-66
2023/03/07 02:48:10;;;;;;;47.53;22.47;;;0.20;99.90;;;;;;5037819;28;20456;-65
2023/03/07 02:50:37;;;;;;;55.43;24.80;;;0.30;99.90;;;;;;5037926;28;20852;-63
2023/03/07 02:53:04;;;;;;;47.07;23.77;;;0.30;99.90;;;;;;5038339;28;20465;-66
2023/03/07 02:55:32;;;;;;;53.07;25.20;;;0.30;99.90;;;;;;5037646;28;20812;-65
2023/03/07 02:57:59;;;;;;;56.80;24.60;;;0.40;99.90;;;;;;5038046;28;20717;-66
2023/03/07 03:00:27;;;;;;;48.87;23.73;;;0.40;99.90;;;;;;5037888;28;20466;-64
2023/03/07 03:02:54;;;;;;;53.50;25.47;;;0.40;99.90;;;;;;5037950;28;20466;-65
2023/03/07 03:05:21;;;;;;;53.47;25.90;;;0.50;99.90;;;;;;5037550;28;20547;-65
2023/03/07 03:07:48;;;;;;;57.40;26.93;;;0.50;99.90;;;;;;5037561;28;20456;-66
2023/03/07 03:10:16;;;;;;;58.07;24.50;;;0.50;99.90;;;;;;5038607;28;20555;-66
2023/03/07 03:12:43;;;;;;;56.43;25.57;;;0.60;99.90;;;;;;5037145;28;20460;-66
2023/03/07 03:15:11;;;;;;;48.07;24.50;;;0.60;99.90;;;;;;5036450;28;20488;-65
2023/03/07 03:17:39;;;;;;;51.17;25.70;;;0.70;99.90;;;;;;5037721;28;20777;-66
2023/03/07 03:20:10;;;;;;;48.10;24.70;;;0.70;99.90;;;;;;5037285;28;20456;-66
2023/03/07 03:22:37;;;;;;;50.50;25.63;;;0.80;99.90;;;;;;5037210;28;20440;-65
2023/03/07 03:25:05;;;;;;;52.93;25.97;;;0.80;99.90;;;;;;5037200;28;20841;-66
2023/03/07 03:27:32;;;;;;;52.53;25.10;;;0.70;99.90;;;;;;5036927;28;20558;-65
2023/03/07 03:29:59;;;;;;;52.47;26.03;;;0.80;99.90;;;;;;5037073;28;20543;-65
2023/03/07 03:32:26;;;;;;;54.53;24.80;;;0.80;99.90;;;;;;5037215;28;20467;-66
2023/03/07 03:34:54;;;;;;;48.70;25.00;;;0.80;99.90;;;;;;5036904;28;20641;-67
2023/03/07 03:37:21;;;;;;;47.03;23.03;;;0.80;99.90;;;;;;5037144;28;20455;-66
2023/03/07 03:39:48;;;;;;;42.07;23.10;;;0.90;99.90;;;;;;5037017;28;20867;-65
2023/03/07 03:42:14;;;;;;;48.93;23.63;;;0.90;99.90;;;;;;5037261;28;20460;-65
2023/03/07 03:44:41;;;;;;;44.87;23.13;;;0.90;99.90;;;;;;5036917;28;20452;-65
2023/03/07 03:47:08;;;;;;;46.20;23.63;;;0.90;99.90;;;;;;5036748;28;20913;-66
2023/03/07 03:49:35;;;;;;;44.57;23.40;;;1.00;99.90;;;;;;5036995;28;20477;-66
2023/03/07 03:52:04;;;;;;;46.40;24.33;;;1.00;99.90;;;;;;5036444;28;20459;-66
2023/03/07 03:54:31;;;;;;;44.70;22.00;;;1.10;99.90;;;;;;5036691;28;20816;-66
2023/03/07 03:56:58;;;;;;;42.63;21.50;;;1.00;99.90;;;;;;5035920;28;20546;-66
2023/03/07 03:59:25;;;;;;;38.47;21.40;;;1.00;99.90;;;;;;5036098;28;20466;-65
2023/03/07 04:01:53;;;;;;;43.13;23.20;;;1.00;99.90;;;;;;5035911;28;20460;-66
2023/03/07 04:04:22;;;;;;;38.23;22.57;;;1.10;99.90;;;;;;5036224;28;20765;-66
2023/03/07 04:06:48;;;;;;;32.87;20.27;;;1.10;99.90;;;;;;5035852;28;20466;-65
2023/03/07 04:09:18;;;;;;;41.10;22.60;;;1.20;99.90;;;;;;5035920;28;20487;-66
2023/03/07 04:11:44;;;;;;;37.50;20.47;;;1.20;99.90;;;;;;5035644;28;20542;-66
2023/03/07 04:14:11;;;;;;;36.80;19.47;;;1.20;99.90;;;;;;5035627;28;20805;-66
2023/03/07 04:16:38;;;;;;;37.63;19.87;;;1.20;99.90;;;;;;5035845;28;20812;-66
2023/03/07 04:19:05;;;;;;;41.60;21.00;;;1.20;99.90;;;;;;5035253;28;20456;-66
2023/03/07 04:21:32;;;;;;;36.60;20.50;;;1.30;99.90;;;;;;5035535;28;20466;-65
2023/03/07 04:23:58;;;;;;;38.03;20.77;;;1.30;99.90;;;;;;5035389;28;20945;-65
2023/03/07 04:26:27;;;;;;;33.10;20.50;;;1.40;99.90;;;;;;5035511;28;20466;-65
2023/03/07 04:28:53;;;;;;;34.70;19.27;;;1.40;99.90;;;;;;5035246;28;20543;-66
2023/03/07 04:31:22;;;;;;;33.47;18.80;;;1.40;99.90;;;;;;5035401;28;20474;-65
2023/03/07 04:33:51;;;;;;;33.90;19.33;;;1.50;99.90;;;;;;5034927;28;20468;-65
2023/03/07 04:36:18;;;;;;;36.30;17.97;;;1.50;99.90;;;;;;5035358;28;20865;-65
2023/03/07 04:38:47;;;;;;;35.57;18.70;;;1.50;99.90;;;;;;5035513;28;20543;-66
2023/03/07 04:41:16;;;;;;;35.60;19.10;;;1.50;99.90;;;;;;5035160;28;20464;-66
2023/03/07 04:43:44;;;;;;;35.87;19.67;;;1.50;99.90;;;;;;5035431;28;20931;-66
2023/03/07 04:46:12;;;;;;;33.00;18.20;;;1.50;99.90;;;;;;5035759;28;20781;-66
2023/03/07 04:48:39;;;;;;;33.43;18.10;;;1.50;99.90;;;;;;5034631;28;20568;-65
2023/03/07 04:51:06;;;;;;;31.47;17.30;;;1.50;99.90;;;;;;5035283;28;20466;-65
2023/03/07 04:53:33;;;;;;;32.83;17.93;;;1.50;99.90;;;;;;5035582;28;20470;-66
2023/03/07 04:56:01;;;;;;;32.70;19.00;;;1.40;99.90;;;;;;5035394;28;20494;-65
2023/03/07 04:58:29;;;;;;;34.23;20.53;;;1.40;99.90;;;;;;5035218;28;20472;-66
2023/03/07 05:00:57;;;;;;;34.83;19.23;;;1.40;99.90;;;;;;5035348;28;20467;-66
2023/03/07 05:03:25;;;;;;;34.87;19.10;;;1.40;99.90;;;;;;5035769;28;20469;-66
2023/03/07 05:05:52;;;;;;;34.90;20.13;;;1.40;99.90;;;;;;5035246;28;20451;-66
2023/03/07 05:08:19;;;;;;;32.87;20.00;;;1.30;99.90;;;;;;5036012;28;20467;-66
2023/03/07 05:10:46;;;;;;;38.07;20.07;;;1.30;99.90;;;;;;5036429;28;20925;-66
2023/03/07 05:13:13;;;;;;;34.90;18.93;;;1.20;99.90;;;;;;5036187;28;20791;-66
2023/03/07 05:15:40;;;;;;;36.27;19.73;;;1.10;99.90;;;;;;5035241;28;20515;-66
2023/03/07 05:18:08;;;;;;;35.17;20.10;;;1.20;99.90;;;;;;5036521;28;20466;-65
2023/03/07 05:20:35;;;;;;;35.70;19.83;;;1.10;99.90;;;;;;5037018;28;20466;-65
2023/03/07 05:23:02;;;;;;;38.87;22.07;;;1.10;99.90;;;;;;5036816;28;20548;-65
2023/03/07 05:25:28;;;;;;;36.33;20.33;;;1.10;99.90;;;;;;5036329;28;20984;-65
2023/03/07 05:27:55;;;;;;;38.20;20.80;;;1.10;99.90;;;;;;5037545;28;20461;-65
2023/03/07 05:30:22;;;;;;;39.40;20.00;;;1.10;99.90;;;;;;5038665;28;20519;-66
2023/03/07 05:32:50;;;;;;;40.00;20.33;;;1.10;99.90;;;;;;5037723;28;20467;-65
2023/03/07 05:35:19;;;;;;;38.83;21.03;;;1.10;99.90;;;;;;5038023;28;20575;-65
2023/03/07 05:37:46;;;;;;;40.13;21.00;;;1.10;99.90;;;;;;5037602;28;20456;-65
2023/03/07 05:40:14;;;;;;;39.83;23.00;;;1.10;99.90;;;;;;5037487;28;20467;-66
2023/03/07 05:42:41;;;;;;;44.43;22.67;;;1.10;99.90;;;;;;5037069;28;20460;-66
2023/03/07 05:45:09;;;;;;;39.27;20.50;;;1.10;99.90;;;;;;5035561;28;20924;-65
2023/03/07 05:47:36;;;;;;;36.63;20.60;;;1.10;99.90;;;;;;5035174;28;20547;-66
2023/03/07 05:50:03;;;;;;;43.10;20.53;;;1.20;99.90;;;;;;5034735;28;20456;-66
2023/03/07 05:52:32;;;;;;;40.50;21.80;;;1.20;99.90;;;;;;5035122;28;20452;-65
2023/03/07 05:54:58;;;;;;;37.40;20.20;;;1.10;99.90;;;;;;5034765;28;20801;-65
2023/03/07 05:57:25;;;;;;;43.53;21.67;;;1.10;99.90;;;;;;5034484;28;20470;-66
2023/03/07 05:59:52;;;;;;;40.37;21.60;;;1.10;99.90;;;;;;5035876;28;20456;-66
2023/03/07 06:02:19;;;;;;;39.93;22.43;;;1.10;99.90;;;;;;5034874;28;20456;-66
2023/03/07 06:04:46;;;;;;;38.53;19.73;;;1.10;99.90;;;;;;5035581;28;20452;-66
2023/03/07 06:07:13;;;;;;;38.63;21.07;;;1.20;99.90;;;;;;5035250;28;20456;-66
2023/03/07 06:09:41;;;;;;;38.60;22.10;;;1.20;99.90;;;;;;5035151;28;20460;-66
2023/03/07 06:12:10;;;;;;;36.13;20.43;;;1.20;99.90;;;;;;5034768;28;20456;-65
2023/03/07 06:14:37;;;;;;;37.60;19.57;;;1.10;99.90;;;;;;5034414;28;20871;-65
2023/03/07 06:17:03;;;;;;;42.30;22.17;;;1.20;99.90;;;;;;5035324;28;20465;-66
2023/03/07 06:19:30;;;;;;;42.50;22.30;;;1.20;99.90;;;;;;5034911;28;20964;-65
2023/03/07 06:21:57;;;;;;;41.93;22.30;;;1.20;99.90;;;;;;5035831;28;20521;-65
2023/03/07 06:24:24;;;;;;;47.50;23.80;;;1.30;99.90;;;;;;5036250;28;20490;-66
2023/03/07 06:26:52;;;;;;;41.77;23.30;;;1.30;99.90;;;;;;5036234;28;20492;-66
2023/03/07 06:29:19;;;;;;;38.43;21.80;;;1.30;99.90;;;;;;5036587;28;20459;-66
2023/03/07 06:31:46;;;;;;;43.30;21.80;;;1.40;99.90;;;;;;5036654;28;20456;-65
2023/03/07 06:34:13;;;;;;;39.30;22.20;;;1.40;99.90;;;;;;5036612;28;20488;-67
2023/03/07 06:36:40;;;;;;;45.97;22.50;;;1.40;99.90;;;;;;5036467;28;20494;-65
2023/03/07 06:39:07;;;;;;;35.10;22.10;;;1.40;99.90;;;;;;5036556;28;20543;-66
2023/03/07 06:41:34;;;;;;;45.07;23.00;;;1.50;99.90;;;;;;5035829;28;20456;-66
2023/03/07 06:44:02;;;;;;;39.60;21.40;;;1.50;99.90;;;;;;5035878;28;20532;-66
2023/03/07 06:46:29;;;;;;;45.47;22.87;;;1.50;99.90;;;;;;5035294;28;20921;-65
2023/03/07 06:48:56;;;;;;;46.37;23.70;;;1.50;99.90;;;;;;5034704;28;20456;-65
2023/03/07 06:51:22;;;;;;;52.63;22.20;;;1.50;99.90;;;;;;5037805;28;20470;-65
2023/03/07 06:53:49;;;;;;;42.20;22.80;;;1.60;99.90;;;;;;5039039;28;20460;-66
2023/03/07 06:56:16;;;;;;;39.80;22.70;;;1.60;99.90;;;;;;5039035;28;20873;-66
2023/03/07 06:58:43;;;;;;;46.90;22.57;;;1.60;99.90;;;;;;5039095;28;20955;-65
2023/03/07 07:01:17;;;;;;;41.63;22.50;;;1.60;99.90;;;;;;5038627;28;20542;-66
2023/03/07 07:03:44;;;;;;;46.20;20.93;;;1.70;99.90;;;;;;5039084;28;20456;-65
2023/03/07 07:06:11;;;;;;;39.67;22.70;;;1.70;99.90;;;;;;5039377;28;20452;-65
2023/03/07 07:08:38;;;;;;;40.80;21.30;;;1.80;99.90;;;;;;5038768;28;20768;-65
2023/03/07 07:11:05;;;;;;;38.23;21.70;;;1.80;99.90;;;;;;5038555;28;20534;-65
2023/03/07 07:13:32;;;;;;;38.93;19.37;;;1.80;99.90;;;;;;5038757;28;20539;-66
2023/03/07 07:16:03;;;;;;;41.60;21.80;;;1.80;99.90;;;;;;5038763;28;20496;-67
2023/03/07 07:18:32;;;;;;;40.10;20.90;;;1.80;99.90;;;;;;5038658;28;20462;-64
2023/03/07 07:20:59;;;;;;;36.00;21.43;;;1.80;99.90;;;;;;5038708;28;20451;-66
2023/03/07 07:23:26;;;;;;;35.20;20.83;;;1.80;99.90;;;;;;5038664;28;20551;-66
2023/03/07 07:25:53;;;;;;;36.87;20.77;;;1.90;99.90;;;;;;5038593;28;20462;-64
2023/03/07 07:28:20;;;;;;;36.30;20.17;;;1.90;99.90;;;;;;5038431;28;20519;-66
2023/03/07 07:30:47;;;;;;;35.73;19.60;;;2.00;99.90;;;;;;5038537;28;20457;-65
2023/03/07 07:33:14;;;;;;;30.47;17.93;;;2.00;99.90;;;;;;5038242;28;20474;-66
2023/03/07 07:35:43;;;;;;;34.60;19.40;;;2.10;99.90;;;;;;5038508;28;20557;-66
2023/03/07 07:38:10;;;;;;;38.97;19.73;;;2.10;99.90;;;;;;5038774;28;20498;-65
2023/03/07 07:40:37;;;;;;;33.30;19.40;;;2.10;99.90;;;;;;5037798;28;20791;-65
2023/03/07 07:43:04;;;;;;;35.70;17.80;;;2.10;99.90;;;;;;5036975;28;20559;-65
2023/03/07 07:45:31;;;;;;;33.90;18.70;;;2.20;99.90;;;;;;5037428;28;20463;-64
2023/03/07 07:47:59;;;;;;;31.53;17.83;;;2.20;99.90;;;;;;5036856;28;20452;-65
2023/03/07 07:50:26;;;;;;;31.20;17.10;;;2.30;99.90;;;;;;5036316;28;20455;-65
2023/03/07 07:52:54;;;;;;;29.00;17.93;;;2.30;99.90;;;;;;5036355;28;20798;-65
2023/03/07 07:55:21;;;;;;;32.03;17.07;;;2.30;99.90;;;;;;5036971;28;20476;-65
2023/03/07 07:57:48;;;;;;;28.10;16.40;;;2.30;99.90;;;;;;5036639;28;20467;-65
2023/03/07 08:00:20;;;;;;;26.20;16.77;;;2.40;99.90;;;;;;5045723;28;20546;-65
2023/03/07 08:02:48;;;;;;;28.10;16.33;;;2.40;99.90;;;;;;5056351;28;20799;-65
2023/03/07 08:05:16;;;;;;;27.33;14.77;;;2.40;99.90;;;;;;5056978;28;20554;-65
2023/03/07 08:07:42;;;;;;;28.40;14.83;;;2.40;99.90;;;;;;5056261;28;20459;-66
2023/03/07 08:10:14;;;;;;;25.80;15.73;;;2.50;99.90;;;;;;5056010;28;20459;-65
2023/03/07 08:12:41;;;;;;;25.10;15.43;;;2.60;99.90;;;;;;5056618;28;20439;-66
2023/03/07 08:15:09;;;;;;;24.20;16.33;;;2.60;99.90;;;;;;5056455;28;20483;-66
2023/03/07 08:17:36;;;;;;;32.57;17.20;;;2.60;99.90;;;;;;5056861;28;20561;-63
2023/03/07 08:20:08;;;;;;;26.67;14.40;;;2.60;99.90;;;;;;5056287;28;20786;-66
2023/03/07 08:22:34;;;;;;;24.23;14.60;;;2.70;99.90;;;;;;5055807;28;20450;-63
2023/03/07 08:25:01;;;;;;;23.83;13.13;;;2.70;99.90;;;;;;5056095;28;20459;-63
2023/03/07 08:27:30;;;;;;;23.73;15.67;;;2.80;99.90;;;;;;5055800;28;20542;-63
2023/03/07 08:29:57;;;;;;;23.37;15.20;;;2.80;99.90;;;;;;5055778;28;20473;-63
2023/03/07 08:32:23;;;;;;;25.60;14.13;;;2.70;99.90;;;;;;5056217;28;20491;-62
2023/03/07 08:34:50;;;;;;;24.27;15.40;;;2.70;99.90;;;;;;5056210;28;20460;-62
2023/03/07 08:37:17;;;;;;;25.13;15.33;;;2.70;99.90;;;;;;5055602;28;20935;-63
2023/03/07 08:39:44;;;;;;;24.37;14.33;;;2.60;99.90;;;;;;5056545;28;20550;-63
2023/03/07 08:42:11;;;;;;;24.43;15.40;;;2.70;99.90;;;;;;5057114;28;20866;-63
2023/03/07 08:44:39;;;;;;;23.40;15.03;;;2.60;99.90;;;;;;5056052;28;20459;-63
2023/03/07 08:47:06;;;;;;;23.97;13.90;;;2.70;99.90;;;;;;5056329;28;20534;-61
2023/03/07 08:49:33;;;;;;;27.80;15.30;;;2.60;99.90;;;;;;5056376;28;20926;-61
2023/03/07 08:51:59;;;;;;;24.80;14.97;;;2.70;99.90;;;;;;5055994;28;20465;-62
2023/03/07 08:54:28;;;;;;;25.40;15.70;;;2.70;99.90;;;;;;5055900;28;20459;-64
2023/03/07 08:56:54;;;;;;;27.90;16.33;;;2.80;99.90;;;;;;5056039;28;21045;-63
2023/03/07 08:59:21;;;;;;;25.10;15.67;;;2.90;99.90;;;;;;5056191;28;20455;-64
2023/03/07 09:01:50;;;;;;;28.07;15.50;;;2.90;99.90;;;;;;5055723;28;20553;-61
2023/03/07 09:04:16;;;;;;;26.63;15.50;;;3.00;99.90;;;;;;5056221;28;20460;-63
2023/03/07 09:06:43;;;;;;;22.97;14.37;;;3.00;99.90;;;;;;5056131;28;20451;-64
2023/03/07 09:09:10;;;;;;;23.40;14.63;;;3.00;99.90;;;;;;5056268;28;20824;-61
2023/03/07 09:11:37;;;;;;;22.30;13.90;;;3.10;99.90;;;;;;5055657;28;20911;-63
2023/03/07 09:14:04;;;;;;;22.20;13.70;;;3.10;99.90;;;;;;5055331;28;20479;-61
2023/03/07 09:16:31;;;;;;;22.57;14.47;;;3.20;99.90;;;;;;5055953;28;20478;-63
2023/03/07 09:18:59;;;;;;;24.80;14.87;;;3.20;99.90;;;;;;5056120;28;20462;-61
2023/03/07 09:21:26;;;;;;;25.83;15.63;;;3.30;99.90;;;;;;5056030;28;20537;-61
2023/03/07 09:23:52;;;;;;;22.53;14.60;;;3.40;99.90;;;;;;5056309;28;20461;-62
2023/03/07 09:26:19;;;;;;;23.80;13.27;;;3.40;99.90;;;;;;5046017;28;20935;-64
2023/03/07 09:28:46;;;;;;;19.90;12.97;;;3.50;99.90;;;;;;5039352;28;20487;-60
2023/03/07 09:31:15;;;;;;;20.47;13.90;;;3.50;99.90;;;;;;5055871;28;20455;-61
2023/03/07 09:33:42;;;;;;;22.37;12.30;;;3.60;99.90;;;;;;5055991;28;21007;-63
2023/03/07 09:36:12;;;;;;;18.70;12.50;;;3.60;99.90;;;;;;5055714;28;20880;-62
2023/03/07 09:38:39;;;;;;;16.90;11.20;;;3.70;99.90;;;;;;5055453;28;20455;-62
2023/03/07 09:41:18;;;;;;;16.23;11.40;;;3.70;99.90;;;;;;5055363;28;21027;-62
2023/03/07 09:43:51;;;;;;;16.17;10.87;;;3.70;99.90;;;;;;5055553;28;20443;-61
2023/03/07 09:46:30;;;;;;;17.53;11.93;;;3.80;99.90;;;;;;5055369;28;20457;-63
2023/03/07 09:49:16;;;;;;;18.40;11.53;;;3.80;99.90;;;;;;5056359;28;20448;-62
2023/03/07 09:51:48;;;;;;;14.53;10.07;;;3.80;99.90;;;;;;5056876;28;20443;-60
2023/03/07 09:54:18;;;;;;;17.97;11.60;;;3.90;99.90;;;;;;5055775;28;20444;-63
2023/03/07 09:56:48;;;;;;;15.97;10.37;;;4.00;99.90;;;;;;5055685;28;20483;-60
2023/03/07 09:59:21;;;;;;;15.60;10.80;;;4.10;99.90;;;;;;5055294;28;20482;-63
2023/03/07 10:01:51;;;;;;;13.17;10.47;;;4.10;99.90;;;;;;5055536;28;20497;-61
2023/03/07 10:04:25;;;;;;;12.30;9.30;;;4.20;99.90;;;;;;5055661;28;20501;-61
2023/03/07 10:06:57;;;;;;;15.47;9.70;;;4.20;99.90;;;;;;5055093;28;20505;-61
2023/03/07 10:09:25;;;;;;;13.33;8.57;;;4.40;99.90;;;;;;5055255;28;20479;-61
2023/03/07 10:12:08;;;;;;;12.87;8.50;;;4.50;99.90;;;;;;5055067;28;20505;-62
2023/03/07 10:14:54;;;;;;;11.77;8.17;;;4.50;99.90;;;;;;5054796;28;20815;-62
2023/03/07 10:17:34;;;;;;;11.13;8.40;;;4.60;99.90;;;;;;5055195;28;20609;-62
2023/03/07 10:20:13;;;;;;;11.77;8.23;;;4.60;99.90;;;;;;5055323;28;20447;-62
2023/03/07 10:22:51;;;;;;;10.40;8.03;;;4.60;99.90;;;;;;5054994;28;20439;-62
2023/03/07 10:25:25;;;;;;;9.70;7.17;;;4.70;99.90;;;;;;5057798;28;20439;-63
2023/03/07 10:27:59;;;;;;;9.67;7.10;;;4.60;99.90;;;;;;5058845;28;20440;-61
2023/03/07 10:30:26;;;;;;;8.67;6.60;;;4.60;99.90;;;;;;5059711;28;20443;-60
2023/03/07 10:32:57;;;;;;;8.20;6.17;;;4.60;99.90;;;;;;5059403;28;20489;-61
2023/03/07 10:35:31;;;;;;;10.33;6.87;;;4.60;99.90;;;;;;5059484;28;20453;-62
2023/03/07 10:38:04;;;;;;;7.73;6.10;;;4.60;99.90;;;;;;5059324;28;20469;-62
2023/03/07 10:40:36;;;;;;;7.83;6.13;;;4.50;99.90;;;;;;5060359;28;20530;-60
2023/03/07 10:43:06;;;;;;;7.73;5.50;;;4.60;99.90;;;;;;5058415;28;20449;-62
2023/03/07 10:45:33;;;;;;;5.37;4.30;;;4.50;99.90;;;;;;5058575;28;20456;-63
2023/03/07 10:48:06;;;;;;;8.43;3.27;;;4.50;99.90;;;;;;5058595;28;20455;-62
2023/03/07 10:50:41;;;;;;;7.13;3.53;;;4.50;99.90;;;;;;5058761;28;20764;-60
2023/03/07 10:53:22;;;;;;;3.23;2.27;;;4.50;99.90;;;;;;5059193;28;20446;-62
2023/03/07 10:55:49;;;;;;;4.60;2.50;;;4.40;99.90;;;;;;5058879;28;20451;-58
2023/03/07 10:58:19;;;;;;;4.83;2.70;;;4.40;99.90;;;;;;5059176;28;20955;-60
2023/03/07 11:00:58;;;;;;;4.37;3.07;;;4.40;99.90;;;;;;5058680;28;20444;-60
2023/03/07 11:03:29;;;;;;;3.60;2.60;;;4.30;99.90;;;;;;5058049;28;20451;-62
2023/03/07 11:05:55;;;;;;;3.90;2.83;;;4.20;99.90;;;;;;5057957;28;20542;-62
2023/03/07 11:08:30;;;;;;;4.17;2.77;;;4.30;99.90;;;;;;5057773;28;20968;-59
2023/03/07 11:10:57;;;;;;;4.90;3.17;;;4.10;99.90;;;;;;5058205;28;20443;-62
2023/03/07 11:13:24;;;;;;;3.87;3.47;;;4.00;99.90;;;;;;5057953;28;20455;-61
2023/03/07 11:15:51;;;;;;;3.73;2.97;;;4.10;99.90;;;;;;5057589;28;20574;-61
2023/03/07 11:18:27;;;;;;;3.90;3.30;;;4.10;99.90;;;;;;5058173;28;20503;-62
2023/03/07 11:20:54;;;;;;;4.00;3.10;;;4.10;99.90;;;;;;5058384;28;20539;-62
2023/03/07 11:23:23;;;;;;;7.07;3.80;;;4.20;99.90;;;;;;5058768;28;20463;-61
2023/03/07 11:25:52;;;;;;;3.87;3.43;;;4.20;99.90;;;;;;5059015;28;20455;-62
2023/03/07 11:28:28;;;;;;;4.47;3.10;;;4.20;99.90;;;;;;5058592;28;20455;-62
2023/03/07 11:31:07;;;;;;;4.27;3.30;;;4.30;99.90;;;;;;5059324;28;20926;-62
2023/03/07 11:33:47;;;;;;;5.33;2.60;;;4.40;99.90;;;;;;5058883;28;20439;-61
2023/03/07 11:36:16;;;;;;;4.30;2.80;;;4.40;99.90;;;;;;5057461;28;20447;-63
2023/03/07 11:38:55;;;;;;;4.53;2.33;;;4.40;99.90;;;;;;5059998;28;20581;-62
2023/03/07 11:41:27;;;;;;;4.30;2.97;;;4.30;99.90;;;;;;5059412;28;20481;-63
2023/03/07 11:44:11;;;;;;;3.90;3.00;;;4.20;99.90;;;;;;5060115;28;20450;-62
2023/03/07 11:46:53;;;;;;;4.30;2.77;;;4.20;99.90;;;;;;5058459;28;20499;-63
2023/03/07 11:49:33;;;;;;;4.40;2.50;;;4.20;99.90;;;;;;5056908;28;20833;-63
2023/03/07 11:52:11;;;;;;;6.27;2.80;;;4.20;99.90;;;;;;5056982;28;20451;-62
2023/03/07 11:54:47;;;;;;;3.53;2.13;;;4.10;99.90;;;;;;5056938;28;20538;-63
2023/03/07 11:57:26;;;;;;;3.83;2.50;;;4.00;99.90;;;;;;5056874;28;20550;-61
2023/03/07 12:00:23;;;;;;;4.00;2.63;;;3.80;99.90;;;;;;5056696;28;20450;-62
2023/03/07 12:03:08;;;;;;;4.23;2.60;;;3.80;99.90;;;;;;5058183;28;20538;-64
2023/03/07 12:05:50;;;;;;;4.80;2.60;;;3.70;99.90;;;;;;5065287;28;20435;-62
2023/03/07 12:08:40;;;;;;;2.47;2.20;;;3.70;99.90;;;;;;5066521;28;20491;-61
2023/03/07 12:11:33;;;;;;;2.50;2.23;;;3.60;99.90;;;;;;5065699;28;20527;-62
2023/03/07 12:14:13;;;;;;;4.07;2.87;;;3.60;99.90;;;;;;5060913;28;20549;-60
2023/03/07 12:16:51;;;;;;;7.43;3.07;;;3.50;99.90;;;;;;5058516;28;20784;-61
2023/03/07 12:19:34;;;;;;;3.63;2.47;;;3.50;99.90;;;;;;5057689;28;20888;-63
2023/03/07 12:22:25;;;;;;;4.37;2.30;;;3.50;99.90;;;;;;5058677;28;20783;-61
2023/03/07 12:25:04;;;;;;;2.90;2.43;;;3.40;99.90;;;;;;5059246;28;20444;-61
2023/03/07 12:27:35;;;;;;;4.40;2.70;;;3.30;99.90;;;;;;5059492;28;20455;-61
2023/03/07 12:30:07;;;;;;;3.00;2.20;;;3.20;99.90;;;;;;5059808;28;20520;-61
2023/03/07 12:32:35;;;;;;;2.60;2.00;;;3.20;99.90;;;;;;5058613;28;20892;-62
2023/03/07 12:35:14;;;;;;;3.20;2.47;;;3.20;99.90;;;;;;5057212;28;20505;-62
2023/03/07 12:37:47;;;;;;;2.20;1.90;;;3.00;99.90;;;;;;5056752;28;20477;-64
2023/03/07 12:40:20;;;;;;;4.27;2.43;;;2.90;99.90;;;;;;5056431;28;20447;-62
2023/03/07 12:42:55;;;;;;;4.10;2.60;;;2.90;99.90;;;;;;5056520;28;20530;-63
2023/03/07 12:45:24;;;;;;;3.27;2.47;;;2.80;99.90;;;;;;5055865;28;20890;-63
2023/03/07 12:48:00;;;;;;;5.00;2.27;;;2.90;99.90;;;;;;5055316;28;20465;-63
2023/03/07 12:50:31;;;;;;;2.73;1.93;;;2.90;99.90;;;;;;5055899;28;20485;-64
2023/03/07 12:53:02;;;;;;;3.77;2.27;;;2.80;99.90;;;;;;5055940;28;20526;-64